sensor_id;sensor_type;location;lat;lon;timestamp;temperature;humidity
59075;DHT22;44860;53.020;6.738;2023-09-30T00:01:46;12.30;99.90
59075;DHT22;44860;53.020;6.738;2023-09-30T00:04:12;12.30;99.90
59075;DHT22;44860;53.020;6.738;2023-09-30T00:06:38;12.30;99.90
59075;DHT22;44860;53.020;6.738;2023-09-30T00:09:03;12.30;99.90
59075;DHT22;44860;53.020;6.738;2023-09-30T00:11:30;12.30;99.90
59075;DHT22;44860;53.020;6.738;2023-09-30T00:13:56;12.40;99.90
59075;DHT22;44860;53.020;6.738;2023-09-30T00:16:22;12.40;99.90
59075;DHT22;44860;53.020;6.738;2023-09-30T00:18:47;12.40;99.90
59075;DHT22;44860;53.020;6.738;2023-09-30T00:21:13;12.40;99.90
59075;DHT22;44860;53.020;6.738;2023-09-30T00:23:40;12.40;99.90
59075;DHT22;44860;53.020;6.738;2023-09-30T00:26:06;12.40;99.90
59075;DHT22;44860;53.020;6.738;2023-09-30T00:28:31;12.40;99.90
59075;DHT22;44860;53.020;6.738;2023-09-30T00:30:57;12.40;99.90
59075;DHT22;44860;53.020;6.738;2023-09-30T00:33:23;12.40;99.90
59075;DHT22;44860;53.020;6.738;2023-09-30T00:35:49;12.40;99.90
59075;DHT22;44860;53.020;6.738;2023-09-30T00:38:14;12.40;99.90
59075;DHT22;44860;53.020;6.738;2023-09-30T00:40:47;12.30;99.90
59075;DHT22;44860;53.020;6.738;2023-09-30T00:43:19;12.40;99.90
59075;DHT22;44860;53.020;6.738;2023-09-30T00:45:51;12.40;99.90
59075;DHT22;44860;53.020;6.738;2023-09-30T00:48:22;12.30;99.90
59075;DHT22;44860;53.020;6.738;2023-09-30T00:50:47;12.40;99.90
59075;DHT22;44860;53.020;6.738;2023-09-30T00:53:14;12.40;99.90
59075;DHT22;44860;53.020;6.738;2023-09-30T00:55:39;12.40;99.90
59075;DHT22;44860;53.020;6.738;2023-09-30T00:58:05;12.40;99.90
59075;DHT22;44860;53.020;6.738;2023-09-30T01:00:31;12.30;99.90
59075;DHT22;44860;53.020;6.738;2023-09-30T01:02:58;12.30;99.90
59075;DHT22;44860;53.020;6.738;2023-09-30T01:05:29;12.30;99.90
59075;DHT22;44860;53.020;6.738;2023-09-30T01:07:55;12.30;99.90
59075;DHT22;44860;53.020;6.738;2023-09-30T01:10:21;12.30;99.90
59075;DHT22;44860;53.020;6.738;2023-09-30T01:12:47;12.30;99.90
59075;DHT22;44860;53.020;6.738;2023-09-30T01:15:13;12.30;99.90
59075;DHT22;44860;53.020;6.738;2023-09-30T01:17:38;12.30;99.90
59075;DHT22;44860;53.020;6.738;2023-09-30T01:20:05;12.30;99.90
59075;DHT22;44860;53.020;6.738;2023-09-30T01:22:32;12.30;99.90
59075;DHT22;44860;53.020;6.738;2023-09-30T01:24:58;12.30;99.90
59075;DHT22;44860;53.020;6.738;2023-09-30T01:27:24;12.30;99.90
59075;DHT22;44860;53.020;6.738;2023-09-30T01:29:51;12.30;99.90
59075;DHT22;44860;53.020;6.738;2023-09-30T01:32:16;12.30;99.90
59075;DHT22;44860;53.020;6.738;2023-09-30T01:34:42;12.30;99.90
59075;DHT22;44860;53.020;6.738;2023-09-30T01:37:08;12.30;99.90
59075;DHT22;44860;53.020;6.738;2023-09-30T01:39:33;12.30;99.90
59075;DHT22;44860;53.020;6.738;2023-09-30T01:41:59;12.30;99.90
59075;DHT22;44860;53.020;6.738;2023-09-30T01:44:25;12.20;99.90
59075;DHT22;44860;53.020;6.738;2023-09-30T01:46:51;12.20;99.90
59075;DHT22;44860;53.020;6.738;2023-09-30T01:49:17;12.20;99.90
59075;DHT22;44860;53.020;6.738;2023-09-30T01:51:45;12.20;99.90
59075;DHT22;44860;53.020;6.738;2023-09-30T01:54:11;12.20;99.90
59075;DHT22;44860;53.020;6.738;2023-09-30T01:56:37;12.20;99.90
59075;DHT22;44860;53.020;6.738;2023-09-30T01:59:03;12.20;99.90
59075;DHT22;44860;53.020;6.738;2023-09-30T02:01:28;12.20;99.90
59075;DHT22;44860;53.020;6.738;2023-09-30T02:03:54;12.20;99.90
59075;DHT22;44860;53.020;6.738;2023-09-30T02:06:19;12.20;99.90
59075;DHT22;44860;53.020;6.738;2023-09-30T02:08:45;12.20;99.90
59075;DHT22;44860;53.020;6.738;2023-09-30T02:11:11;12.20;99.90
59075;DHT22;44860;53.020;6.738;2023-09-30T02:13:40;12.20;99.90
59075;DHT22;44860;53.020;6.738;2023-09-30T02:16:11;12.20;99.90
59075;DHT22;44860;53.020;6.738;2023-09-30T02:18:37;12.20;99.90
59075;DHT22;44860;53.020;6.738;2023-09-30T02:21:03;12.20;99.90
59075;DHT22;44860;53.020;6.738;2023-09-30T02:23:29;12.20;99.90
59075;DHT22;44860;53.020;6.738;2023-09-30T02:25:55;12.20;99.90
59075;DHT22;44860;53.020;6.738;2023-09-30T02:28:20;12.20;99.90
59075;DHT22;44860;53.020;6.738;2023-09-30T02:30:46;12.20;99.90
59075;DHT22;44860;53.020;6.738;2023-09-30T02:33:12;12.20;99.90
59075;DHT22;44860;53.020;6.738;2023-09-30T02:35:37;12.20;99.90
59075;DHT22;44860;53.020;6.738;2023-09-30T02:38:04;12.20;99.90
59075;DHT22;44860;53.020;6.738;2023-09-30T02:40:30;12.20;99.90
59075;DHT22;44860;53.020;6.738;2023-09-30T02:42:56;12.30;99.90
59075;DHT22;44860;53.020;6.738;2023-09-30T02:45:21;12.30;99.90
59075;DHT22;44860;53.020;6.738;2023-09-30T02:47:47;12.20;99.90
59075;DHT22;44860;53.020;6.738;2023-09-30T02:50:13;12.20;99.90
59075;DHT22;44860;53.020;6.738;2023-09-30T02:52:41;12.20;99.90
59075;DHT22;44860;53.020;6.738;2023-09-30T02:55:11;12.20;99.90
59075;DHT22;44860;53.020;6.738;2023-09-30T02:57:37;12.20;99.90
59075;DHT22;44860;53.020;6.738;2023-09-30T03:00:08;12.20;99.90
59075;DHT22;44860;53.020;6.738;2023-09-30T03:02:52;12.30;99.90
59075;DHT22;44860;53.020;6.738;2023-09-30T03:05:19;12.30;99.90
59075;DHT22;44860;53.020;6.738;2023-09-30T03:07:45;12.30;99.90
59075;DHT22;44860;53.020;6.738;2023-09-30T03:10:12;12.30;99.90
59075;DHT22;44860;53.020;6.738;2023-09-30T03:12:39;12.30;99.90
59075;DHT22;44860;53.020;6.738;2023-09-30T03:15:05;12.30;99.90
59075;DHT22;44860;53.020;6.738;2023-09-30T03:17:32;12.40;99.90
59075;DHT22;44860;53.020;6.738;2023-09-30T03:20:01;12.40;99.90
59075;DHT22;44860;53.020;6.738;2023-09-30T03:22:27;12.40;99.90
59075;DHT22;44860;53.020;6.738;2023-09-30T03:24:54;12.40;99.90
59075;DHT22;44860;53.020;6.738;2023-09-30T03:27:20;12.40;99.90
59075;DHT22;44860;53.020;6.738;2023-09-30T03:29:46;12.40;99.90
59075;DHT22;44860;53.020;6.738;2023-09-30T03:32:12;12.40;99.90
59075;DHT22;44860;53.020;6.738;2023-09-30T03:34:37;12.40;99.90
59075;DHT22;44860;53.020;6.738;2023-09-30T03:37:03;12.40;99.90
59075;DHT22;44860;53.020;6.738;2023-09-30T03:39:32;12.40;99.90
59075;DHT22;44860;53.020;6.738;2023-09-30T03:41:58;12.40;99.90
59075;DHT22;44860;53.020;6.738;2023-09-30T03:44:24;12.40;99.90
59075;DHT22;44860;53.020;6.738;2023-09-30T03:46:51;12.30;99.90
59075;DHT22;44860;53.020;6.738;2023-09-30T03:49:17;12.40;99.90
59075;DHT22;44860;53.020;6.738;2023-09-30T03:51:45;12.30;99.90
59075;DHT22;44860;53.020;6.738;2023-09-30T03:54:11;12.40;99.90
59075;DHT22;44860;53.020;6.738;2023-09-30T03:56:37;12.40;99.90
59075;DHT22;44860;53.020;6.738;2023-09-30T03:59:04;12.40;99.90
59075;DHT22;44860;53.020;6.738;2023-09-30T04:01:30;12.40;99.90
59075;DHT22;44860;53.020;6.738;2023-09-30T04:03:56;12.40;99.90
59075;DHT22;44860;53.020;6.738;2023-09-30T04:06:22;12.40;99.90
59075;DHT22;44860;53.020;6.738;2023-09-30T04:08:48;12.40;99.90
59075;DHT22;44860;53.020;6.738;2023-09-30T04:11:13;12.40;99.90
59075;DHT22;44860;53.020;6.738;2023-09-30T04:13:46;12.40;99.90
59075;DHT22;44860;53.020;6.738;2023-09-30T04:16:12;12.40;99.90
59075;DHT22;44860;53.020;6.738;2023-09-30T04:18:38;12.40;99.90
59075;DHT22;44860;53.020;6.738;2023-09-30T04:21:06;12.30;99.90
59075;DHT22;44860;53.020;6.738;2023-09-30T04:23:33;12.30;99.90
59075;DHT22;44860;53.020;6.738;2023-09-30T04:26:02;12.40;99.90
59075;DHT22;44860;53.020;6.738;2023-09-30T04:28:27;12.30;99.90
59075;DHT22;44860;53.020;6.738;2023-09-30T04:30:54;12.30;99.90
59075;DHT22;44860;53.020;6.738;2023-09-30T04:33:19;12.30;99.90
59075;DHT22;44860;53.020;6.738;2023-09-30T04:35:46;12.40;99.90
59075;DHT22;44860;53.020;6.738;2023-09-30T04:38:12;12.30;99.90
59075;DHT22;44860;53.020;6.738;2023-09-30T04:40:38;12.30;99.90
59075;DHT22;44860;53.020;6.738;2023-09-30T04:43:04;12.30;99.90
59075;DHT22;44860;53.020;6.738;2023-09-30T04:45:31;12.30;99.90
59075;DHT22;44860;53.020;6.738;2023-09-30T04:47:56;12.30;99.90
59075;DHT22;44860;53.020;6.738;2023-09-30T04:50:22;12.30;99.90
59075;DHT22;44860;53.020;6.738;2023-09-30T04:52:48;12.20;99.90
59075;DHT22;44860;53.020;6.738;2023-09-30T04:55:14;12.30;99.90
59075;DHT22;44860;53.020;6.738;2023-09-30T04:57:45;12.30;99.90
59075;DHT22;44860;53.020;6.738;2023-09-30T05:00:16;12.30;99.90
59075;DHT22;44860;53.020;6.738;2023-09-30T05:02:44;12.30;99.90
59075;DHT22;44860;53.020;6.738;2023-09-30T05:05:13;12.20;99.90
59075;DHT22;44860;53.020;6.738;2023-09-30T05:07:40;12.20;99.90
59075;DHT22;44860;53.020;6.738;2023-09-30T05:10:07;12.20;99.90
59075;DHT22;44860;53.020;6.738;2023-09-30T05:12:37;12.20;99.90
59075;DHT22;44860;53.020;6.738;2023-09-30T05:15:04;12.20;99.90
59075;DHT22;44860;53.020;6.738;2023-09-30T05:17:31;12.20;99.90
59075;DHT22;44860;53.020;6.738;2023-09-30T05:19:57;12.20;99.90
59075;DHT22;44860;53.020;6.738;2023-09-30T05:22:23;12.20;99.90
59075;DHT22;44860;53.020;6.738;2023-09-30T05:24:54;12.20;99.90
59075;DHT22;44860;53.020;6.738;2023-09-30T05:27:21;12.20;99.90
59075;DHT22;44860;53.020;6.738;2023-09-30T05:29:47;12.10;99.90
59075;DHT22;44860;53.020;6.738;2023-09-30T05:32:13;12.10;99.90
59075;DHT22;44860;53.020;6.738;2023-09-30T05:34:39;12.10;99.90
59075;DHT22;44860;53.020;6.738;2023-09-30T05:37:05;12.10;99.90
59075;DHT22;44860;53.020;6.738;2023-09-30T05:39:31;12.10;99.90
59075;DHT22;44860;53.020;6.738;2023-09-30T05:41:57;12.00;99.90
59075;DHT22;44860;53.020;6.738;2023-09-30T05:44:23;12.00;99.90
59075;DHT22;44860;53.020;6.738;2023-09-30T05:46:51;12.00;99.90
59075;DHT22;44860;53.020;6.738;2023-09-30T05:49:17;12.00;99.90
59075;DHT22;44860;53.020;6.738;2023-09-30T05:51:44;12.00;99.90
59075;DHT22;44860;53.020;6.738;2023-09-30T05:54:12;12.00;99.90
59075;DHT22;44860;53.020;6.738;2023-09-30T05:56:38;12.00;99.90
59075;DHT22;44860;53.020;6.738;2023-09-30T05:59:07;12.00;99.90
59075;DHT22;44860;53.020;6.738;2023-09-30T06:01:33;11.90;99.90
59075;DHT22;44860;53.020;6.738;2023-09-30T06:03:59;11.90;99.90
59075;DHT22;44860;53.020;6.738;2023-09-30T06:06:28;11.80;99.90
59075;DHT22;44860;53.020;6.738;2023-09-30T06:08:56;11.80;99.90
59075;DHT22;44860;53.020;6.738;2023-09-30T06:11:24;11.80;99.90
59075;DHT22;44860;53.020;6.738;2023-09-30T06:13:57;11.80;99.90
59075;DHT22;44860;53.020;6.738;2023-09-30T06:16:27;11.80;99.90
59075;DHT22;44860;53.020;6.738;2023-09-30T06:18:55;11.80;99.90
59075;DHT22;44860;53.020;6.738;2023-09-30T06:21:21;11.80;99.90
59075;DHT22;44860;53.020;6.738;2023-09-30T06:23:50;11.90;99.90
59075;DHT22;44860;53.020;6.738;2023-09-30T06:26:19;11.80;99.90
59075;DHT22;44860;53.020;6.738;2023-09-30T06:28:46;11.90;99.90
59075;DHT22;44860;53.020;6.738;2023-09-30T06:31:13;11.80;99.90
59075;DHT22;44860;53.020;6.738;2023-09-30T06:33:39;11.80;99.90
59075;DHT22;44860;53.020;6.738;2023-09-30T06:36:09;11.80;99.90
59075;DHT22;44860;53.020;6.738;2023-09-30T06:38:36;11.80;99.90
59075;DHT22;44860;53.020;6.738;2023-09-30T06:41:02;11.80;99.90
59075;DHT22;44860;53.020;6.738;2023-09-30T06:43:28;11.80;99.90
59075;DHT22;44860;53.020;6.738;2023-09-30T06:45:53;11.90;99.90
59075;DHT22;44860;53.020;6.738;2023-09-30T06:48:20;12.00;99.90
59075;DHT22;44860;53.020;6.738;2023-09-30T06:50:47;12.00;99.90
59075;DHT22;44860;53.020;6.738;2023-09-30T06:53:18;12.00;99.90
59075;DHT22;44860;53.020;6.738;2023-09-30T06:55:44;12.00;99.90
59075;DHT22;44860;53.020;6.738;2023-09-30T06:58:10;12.10;99.90
59075;DHT22;44860;53.020;6.738;2023-09-30T07:00:40;12.10;99.90
59075;DHT22;44860;53.020;6.738;2023-09-30T07:03:07;12.20;99.90
59075;DHT22;44860;53.020;6.738;2023-09-30T07:05:35;12.20;99.90
59075;DHT22;44860;53.020;6.738;2023-09-30T07:08:01;12.30;99.90
59075;DHT22;44860;53.020;6.738;2023-09-30T07:10:28;12.40;99.90
59075;DHT22;44860;53.020;6.738;2023-09-30T07:12:55;12.40;99.90
59075;DHT22;44860;53.020;6.738;2023-09-30T07:15:21;12.50;99.90
59075;DHT22;44860;53.020;6.738;2023-09-30T07:17:46;12.50;99.90
59075;DHT22;44860;53.020;6.738;2023-09-30T07:20:13;12.50;99.90
59075;DHT22;44860;53.020;6.738;2023-09-30T07:22:39;12.60;99.90
59075;DHT22;44860;53.020;6.738;2023-09-30T07:25:06;12.70;99.90
59075;DHT22;44860;53.020;6.738;2023-09-30T07:27:32;12.70;99.90
59075;DHT22;44860;53.020;6.738;2023-09-30T07:29:57;12.80;99.90
59075;DHT22;44860;53.020;6.738;2023-09-30T07:32:23;12.80;99.90
59075;DHT22;44860;53.020;6.738;2023-09-30T07:34:50;12.90;99.90
59075;DHT22;44860;53.020;6.738;2023-09-30T07:37:16;12.90;99.90
59075;DHT22;44860;53.020;6.738;2023-09-30T07:39:43;13.00;99.90
59075;DHT22;44860;53.020;6.738;2023-09-30T07:42:09;13.10;99.90
59075;DHT22;44860;53.020;6.738;2023-09-30T07:44:35;13.10;99.90
59075;DHT22;44860;53.020;6.738;2023-09-30T07:47:03;13.20;99.90
59075;DHT22;44860;53.020;6.738;2023-09-30T07:49:29;13.30;99.90
59075;DHT22;44860;53.020;6.738;2023-09-30T07:51:55;13.30;99.90
59075;DHT22;44860;53.020;6.738;2023-09-30T07:54:21;13.40;99.90
59075;DHT22;44860;53.020;6.738;2023-09-30T07:56:47;13.40;99.90
59075;DHT22;44860;53.020;6.738;2023-09-30T07:59:12;13.50;99.90
59075;DHT22;44860;53.020;6.738;2023-09-30T08:01:39;13.60;99.90
59075;DHT22;44860;53.020;6.738;2023-09-30T08:04:06;13.70;99.90
59075;DHT22;44860;53.020;6.738;2023-09-30T08:06:32;13.70;99.90
59075;DHT22;44860;53.020;6.738;2023-09-30T08:08:57;13.80;99.90
59075;DHT22;44860;53.020;6.738;2023-09-30T08:11:23;13.90;99.90
59075;DHT22;44860;53.020;6.738;2023-09-30T08:13:55;13.90;99.90
59075;DHT22;44860;53.020;6.738;2023-09-30T08:16:21;14.00;99.90
59075;DHT22;44860;53.020;6.738;2023-09-30T08:18:47;14.10;99.90
59075;DHT22;44860;53.020;6.738;2023-09-30T08:21:12;14.10;99.90
59075;DHT22;44860;53.020;6.738;2023-09-30T08:23:38;14.20;99.90
59075;DHT22;44860;53.020;6.738;2023-09-30T08:26:06;14.30;99.90
59075;DHT22;44860;53.020;6.738;2023-09-30T08:28:32;14.40;99.90
59075;DHT22;44860;53.020;6.738;2023-09-30T08:31:05;14.40;99.90
59075;DHT22;44860;53.020;6.738;2023-09-30T08:33:33;14.50;99.90
59075;DHT22;44860;53.020;6.738;2023-09-30T08:36:05;14.60;99.90
59075;DHT22;44860;53.020;6.738;2023-09-30T08:38:37;14.70;99.90
59075;DHT22;44860;53.020;6.738;2023-09-30T08:41:04;14.70;99.90
59075;DHT22;44860;53.020;6.738;2023-09-30T08:43:30;14.80;99.90
59075;DHT22;44860;53.020;6.738;2023-09-30T08:46:00;14.90;99.90
59075;DHT22;44860;53.020;6.738;2023-09-30T08:48:28;15.00;99.90
59075;DHT22;44860;53.020;6.738;2023-09-30T08:50:56;15.10;99.90
59075;DHT22;44860;53.020;6.738;2023-09-30T08:53:23;15.20;99.90
59075;DHT22;44860;53.020;6.738;2023-09-30T08:55:53;15.20;99.90
59075;DHT22;44860;53.020;6.738;2023-09-30T08:58:26;15.20;99.90
59075;DHT22;44860;53.020;6.738;2023-09-30T09:00:51;15.30;99.90
59075;DHT22;44860;53.020;6.738;2023-09-30T09:03:19;15.50;99.90
59075;DHT22;44860;53.020;6.738;2023-09-30T09:05:45;15.60;99.90
59075;DHT22;44860;53.020;6.738;2023-09-30T09:08:11;15.60;99.90
59075;DHT22;44860;53.020;6.738;2023-09-30T09:10:57;15.70;99.90
59075;DHT22;44860;53.020;6.738;2023-09-30T09:13:24;15.80;99.90
59075;DHT22;44860;53.020;6.738;2023-09-30T09:16:05;15.90;99.90
59075;DHT22;44860;53.020;6.738;2023-09-30T09:18:31;15.90;99.90
59075;DHT22;44860;53.020;6.738;2023-09-30T09:21:11;16.00;99.90
59075;DHT22;44860;53.020;6.738;2023-09-30T09:23:42;16.10;99.90
59075;DHT22;44860;53.020;6.738;2023-09-30T09:26:09;16.20;99.90
59075;DHT22;44860;53.020;6.738;2023-09-30T09:28:36;16.20;99.90
59075;DHT22;44860;53.020;6.738;2023-09-30T09:31:19;16.30;99.90
59075;DHT22;44860;53.020;6.738;2023-09-30T09:33:45;16.40;99.90
59075;DHT22;44860;53.020;6.738;2023-09-30T09:36:11;16.50;99.90
59075;DHT22;44860;53.020;6.738;2023-09-30T09:38:44;16.60;99.90
59075;DHT22;44860;53.020;6.738;2023-09-30T09:41:10;16.70;99.90
59075;DHT22;44860;53.020;6.738;2023-09-30T09:43:37;16.70;99.90
59075;DHT22;44860;53.020;6.738;2023-09-30T09:46:07;16.80;99.90
59075;DHT22;44860;53.020;6.738;2023-09-30T09:48:35;16.90;99.90
59075;DHT22;44860;53.020;6.738;2023-09-30T09:51:02;17.00;99.90
59075;DHT22;44860;53.020;6.738;2023-09-30T09:53:29;17.10;99.90
59075;DHT22;44860;53.020;6.738;2023-09-30T09:55:57;17.20;99.90
59075;DHT22;44860;53.020;6.738;2023-09-30T09:58:26;17.30;99.90
59075;DHT22;44860;53.020;6.738;2023-09-30T10:00:52;17.30;99.90
59075;DHT22;44860;53.020;6.738;2023-09-30T10:03:18;17.40;99.90
59075;DHT22;44860;53.020;6.738;2023-09-30T10:05:44;17.40;99.90
59075;DHT22;44860;53.020;6.738;2023-09-30T10:08:15;17.50;99.90
59075;DHT22;44860;53.020;6.738;2023-09-30T10:10:44;17.60;99.90
59075;DHT22;44860;53.020;6.738;2023-09-30T10:21:38;18.00;99.90
59075;DHT22;44860;53.020;6.738;2023-09-30T10:35:20;18.30;99.90
59075;DHT22;44860;53.020;6.738;2023-09-30T10:37:47;18.30;99.90
59075;DHT22;44860;53.020;6.738;2023-09-30T10:40:29;18.40;99.90
59075;DHT22;44860;53.020;6.738;2023-09-30T10:42:56;18.30;99.90
59075;DHT22;44860;53.020;6.738;2023-09-30T10:45:43;18.30;99.90
59075;DHT22;44860;53.020;6.738;2023-09-30T10:51:01;18.50;99.90
59075;DHT22;44860;53.020;6.738;2023-09-30T10:53:52;18.60;99.90
59075;DHT22;44860;53.020;6.738;2023-09-30T10:56:22;18.70;99.90
59075;DHT22;44860;53.020;6.738;2023-09-30T11:01:19;19.00;99.90
59075;DHT22;44860;53.020;6.738;2023-09-30T11:03:46;19.20;99.90
59075;DHT22;44860;53.020;6.738;2023-09-30T11:06:15;19.30;99.90
59075;DHT22;44860;53.020;6.738;2023-09-30T11:08:58;19.40;99.90
59075;DHT22;44860;53.020;6.738;2023-09-30T11:11:52;19.50;99.90
59075;DHT22;44860;53.020;6.738;2023-09-30T11:14:26;19.60;99.90
59075;DHT22;44860;53.020;6.738;2023-09-30T11:16:54;19.70;99.90
59075;DHT22;44860;53.020;6.738;2023-09-30T11:19:21;19.70;99.90
59075;DHT22;44860;53.020;6.738;2023-09-30T11:21:54;19.80;99.90
59075;DHT22;44860;53.020;6.738;2023-09-30T11:24:24;19.80;99.90
59075;DHT22;44860;53.020;6.738;2023-09-30T11:26:53;19.90;99.90
59075;DHT22;44860;53.020;6.738;2023-09-30T11:29:21;19.90;99.90
59075;DHT22;44860;53.020;6.738;2023-09-30T11:31:48;19.90;99.90
59075;DHT22;44860;53.020;6.738;2023-09-30T11:34:15;20.00;99.90
59075;DHT22;44860;53.020;6.738;2023-09-30T11:36:52;20.10;99.90
59075;DHT22;44860;53.020;6.738;2023-09-30T11:39:26;20.20;99.90
59075;DHT22;44860;53.020;6.738;2023-09-30T11:41:52;20.20;99.90
59075;DHT22;44860;53.020;6.738;2023-09-30T11:44:18;20.30;99.90
59075;DHT22;44860;53.020;6.738;2023-09-30T11:46:58;20.30;99.90
59075;DHT22;44860;53.020;6.738;2023-09-30T11:49:27;20.40;99.90
59075;DHT22;44860;53.020;6.738;2023-09-30T11:51:54;20.30;99.90
59075;DHT22;44860;53.020;6.738;2023-09-30T11:54:20;20.20;99.90
59075;DHT22;44860;53.020;6.738;2023-09-30T11:56:47;20.20;99.90
59075;DHT22;44860;53.020;6.738;2023-09-30T11:59:13;20.20;99.90
59075;DHT22;44860;53.020;6.738;2023-09-30T12:01:39;20.20;99.90
59075;DHT22;44860;53.020;6.738;2023-09-30T12:04:05;20.10;99.90
59075;DHT22;44860;53.020;6.738;2023-09-30T12:06:32;20.10;99.90
59075;DHT22;44860;53.020;6.738;2023-09-30T12:08:59;20.00;99.90
59075;DHT22;44860;53.020;6.738;2023-09-30T12:11:25;20.10;99.10
59075;DHT22;44860;53.020;6.738;2023-09-30T12:13:51;20.10;98.30
59075;DHT22;44860;53.020;6.738;2023-09-30T12:16:17;20.10;97.90
59075;DHT22;44860;53.020;6.738;2023-09-30T12:18:43;20.20;98.30
59075;DHT22;44860;53.020;6.738;2023-09-30T12:21:12;20.30;98.60
59075;DHT22;44860;53.020;6.738;2023-09-30T12:23:39;20.40;98.70
59075;DHT22;44860;53.020;6.738;2023-09-30T12:26:06;20.50;95.10
59075;DHT22;44860;53.020;6.738;2023-09-30T12:28:35;20.50;94.60
59075;DHT22;44860;53.020;6.738;2023-09-30T12:31:01;20.60;92.30
59075;DHT22;44860;53.020;6.738;2023-09-30T12:33:30;20.60;91.70
59075;DHT22;44860;53.020;6.738;2023-09-30T12:35:57;20.70;92.90
59075;DHT22;44860;53.020;6.738;2023-09-30T12:38:24;20.80;93.40
59075;DHT22;44860;53.020;6.738;2023-09-30T12:40:52;20.80;93.00
59075;DHT22;44860;53.020;6.738;2023-09-30T12:43:19;20.80;92.40
59075;DHT22;44860;53.020;6.738;2023-09-30T12:45:45;20.80;92.20
59075;DHT22;44860;53.020;6.738;2023-09-30T12:48:11;20.70;91.70
59075;DHT22;44860;53.020;6.738;2023-09-30T12:50:37;20.60;91.70
59075;DHT22;44860;53.020;6.738;2023-09-30T12:53:02;20.50;91.80
59075;DHT22;44860;53.020;6.738;2023-09-30T12:55:28;20.50;92.40
59075;DHT22;44860;53.020;6.738;2023-09-30T12:57:54;20.40;92.00
59075;DHT22;44860;53.020;6.738;2023-09-30T13:00:20;20.40;90.50
59075;DHT22;44860;53.020;6.738;2023-09-30T13:02:47;20.30;90.70
59075;DHT22;44860;53.020;6.738;2023-09-30T13:05:14;20.30;91.30
59075;DHT22;44860;53.020;6.738;2023-09-30T13:07:42;20.30;91.60
59075;DHT22;44860;53.020;6.738;2023-09-30T13:10:08;20.30;93.10
59075;DHT22;44860;53.020;6.738;2023-09-30T13:12:34;20.20;93.90
59075;DHT22;44860;53.020;6.738;2023-09-30T13:15:00;20.20;94.40
59075;DHT22;44860;53.020;6.738;2023-09-30T13:17:26;20.20;94.80
59075;DHT22;44860;53.020;6.738;2023-09-30T13:19:52;20.20;95.10
59075;DHT22;44860;53.020;6.738;2023-09-30T13:22:18;20.20;95.50
59075;DHT22;44860;53.020;6.738;2023-09-30T13:24:47;20.30;95.50
59075;DHT22;44860;53.020;6.738;2023-09-30T13:27:12;20.40;95.20
59075;DHT22;44860;53.020;6.738;2023-09-30T13:29:41;20.40;95.30
59075;DHT22;44860;53.020;6.738;2023-09-30T13:32:09;20.50;95.60
59075;DHT22;44860;53.020;6.738;2023-09-30T13:34:35;20.60;95.20
59075;DHT22;44860;53.020;6.738;2023-09-30T13:37:01;20.70;95.00
59075;DHT22;44860;53.020;6.738;2023-09-30T13:39:26;20.80;93.40
59075;DHT22;44860;53.020;6.738;2023-09-30T13:41:53;20.80;92.70
59075;DHT22;44860;53.020;6.738;2023-09-30T13:44:18;20.70;92.80
59075;DHT22;44860;53.020;6.738;2023-09-30T13:46:44;20.80;93.40
59075;DHT22;44860;53.020;6.738;2023-09-30T13:49:11;20.80;90.50
59075;DHT22;44860;53.020;6.738;2023-09-30T13:51:37;20.80;81.40
59075;DHT22;44860;53.020;6.738;2023-09-30T13:54:04;20.80;76.60
59075;DHT22;44860;53.020;6.738;2023-09-30T13:56:32;20.90;73.60
59075;DHT22;44860;53.020;6.738;2023-09-30T13:58:58;21.10;71.30
59075;DHT22;44860;53.020;6.738;2023-09-30T14:01:25;21.20;70.60
59075;DHT22;44860;53.020;6.738;2023-09-30T14:03:50;21.30;69.90
59075;DHT22;44860;53.020;6.738;2023-09-30T14:06:20;21.50;69.80
59075;DHT22;44860;53.020;6.738;2023-09-30T14:08:46;21.60;67.50
59075;DHT22;44860;53.020;6.738;2023-09-30T14:11:12;21.70;64.70
59075;DHT22;44860;53.020;6.738;2023-09-30T14:13:38;21.70;62.60
59075;DHT22;44860;53.020;6.738;2023-09-30T14:16:05;21.80;64.30
59075;DHT22;44860;53.020;6.738;2023-09-30T14:18:32;21.80;60.90
59075;DHT22;44860;53.020;6.738;2023-09-30T14:20:58;21.70;59.70
59075;DHT22;44860;53.020;6.738;2023-09-30T14:23:24;21.70;60.20
59075;DHT22;44860;53.020;6.738;2023-09-30T14:25:54;21.50;59.20
59075;DHT22;44860;53.020;6.738;2023-09-30T14:28:21;21.40;61.40
59075;DHT22;44860;53.020;6.738;2023-09-30T14:30:47;21.30;61.50
59075;DHT22;44860;53.020;6.738;2023-09-30T14:33:15;21.20;60.50
59075;DHT22;44860;53.020;6.738;2023-09-30T14:35:41;21.10;63.60
59075;DHT22;44860;53.020;6.738;2023-09-30T14:38:09;21.10;66.20
59075;DHT22;44860;53.020;6.738;2023-09-30T14:40:38;21.10;63.90
59075;DHT22;44860;53.020;6.738;2023-09-30T14:43:09;21.00;63.60
59075;DHT22;44860;53.020;6.738;2023-09-30T14:45:39;20.90;65.80
59075;DHT22;44860;53.020;6.738;2023-09-30T14:48:08;20.90;66.90
59075;DHT22;44860;53.020;6.738;2023-09-30T14:50:38;21.00;70.20
59075;DHT22;44860;53.020;6.738;2023-09-30T14:53:04;21.00;72.30
59075;DHT22;44860;53.020;6.738;2023-09-30T14:55:33;21.10;72.80
59075;DHT22;44860;53.020;6.738;2023-09-30T14:57:58;21.20;68.50
59075;DHT22;44860;53.020;6.738;2023-09-30T15:00:24;21.20;69.10
59075;DHT22;44860;53.020;6.738;2023-09-30T15:02:52;21.20;68.70
59075;DHT22;44860;53.020;6.738;2023-09-30T15:05:20;21.20;67.00
59075;DHT22;44860;53.020;6.738;2023-09-30T15:07:45;21.20;66.00
59075;DHT22;44860;53.020;6.738;2023-09-30T15:10:11;21.10;67.40
59075;DHT22;44860;53.020;6.738;2023-09-30T15:12:37;21.10;68.10
59075;DHT22;44860;53.020;6.738;2023-09-30T15:15:02;21.00;69.00
59075;DHT22;44860;53.020;6.738;2023-09-30T15:17:29;20.90;69.40
59075;DHT22;44860;53.020;6.738;2023-09-30T15:19:55;20.80;70.50
59075;DHT22;44860;53.020;6.738;2023-09-30T15:22:20;20.70;70.10
59075;DHT22;44860;53.020;6.738;2023-09-30T15:24:46;20.60;72.20
59075;DHT22;44860;53.020;6.738;2023-09-30T15:27:12;20.50;74.10
59075;DHT22;44860;53.020;6.738;2023-09-30T15:29:37;20.40;73.90
59075;DHT22;44860;53.020;6.738;2023-09-30T15:32:04;20.30;75.40
59075;DHT22;44860;53.020;6.738;2023-09-30T15:34:30;20.20;78.00
59075;DHT22;44860;53.020;6.738;2023-09-30T15:36:56;20.10;81.30
59075;DHT22;44860;53.020;6.738;2023-09-30T15:39:22;20.10;87.50
59075;DHT22;44860;53.020;6.738;2023-09-30T15:41:48;20.00;85.50
59075;DHT22;44860;53.020;6.738;2023-09-30T15:44:14;19.90;87.80
59075;DHT22;44860;53.020;6.738;2023-09-30T15:46:39;19.80;87.00
59075;DHT22;44860;53.020;6.738;2023-09-30T15:49:05;19.70;87.30
59075;DHT22;44860;53.020;6.738;2023-09-30T15:51:31;19.70;87.30
59075;DHT22;44860;53.020;6.738;2023-09-30T15:53:56;19.60;88.00
59075;DHT22;44860;53.020;6.738;2023-09-30T15:56:23;19.60;87.70